Time;durP1;ratioP1;P1;durP2;ratioP2;P2;SDS_P1;SDS_P2;PMS_P1;PMS_P2;Temp;Humidity;BMP_temperature;BMP_pressure;BME280_temperature;BME280_humidity;BME280_pressure;Samples;Min_cycle;Max_cycle;Signal;HPM_P1;HPM_P2
2023/10/07 00:02:35;;;;;;;7.70;2.53;;;12.40;99.90;;;;;;5047540;28;20199;-67
2023/10/07 00:05:27;;;;;;;9.47;3.20;;;12.50;99.90;;;;;;5048172;28;20211;-67
2023/10/07 00:08:16;;;;;;;11.00;3.00;;;12.50;99.90;;;;;;5056467;28;20205;-67
2023/10/07 00:11:11;;;;;;;6.33;2.63;;;12.50;99.90;;;;;;5061292;28;20232;-67
2023/10/07 00:14:00;;;;;;;6.93;2.60;;;12.50;99.90;;;;;;5060352;28;20204;-67
2023/10/07 00:16:47;;;;;;;9.70;3.00;;;12.60;99.90;;;;;;5059532;28;20202;-67
2023/10/07 00:19:34;;;;;;;12.30;3.33;;;12.60;99.90;;;;;;5058184;28;20210;-67
2023/10/07 00:22:21;;;;;;;9.13;3.07;;;12.60;99.90;;;;;;5058534;28;20194;-67
2023/10/07 00:25:12;;;;;;;6.90;2.57;;;12.60;99.90;;;;;;5058405;28;20562;-67
2023/10/07 00:27:59;;;;;;;6.47;3.07;;;12.70;99.90;;;;;;5057548;28;20200;-67
2023/10/07 00:30:49;;;;;;;8.83;2.80;;;12.70;99.90;;;;;;5058368;28;20221;-67
2023/10/07 00:33:50;;;;;;;8.33;2.90;;;12.70;99.90;;;;;;5061632;28;20205;-67
2023/10/07 00:36:43;;;;;;;9.13;2.80;;;12.70;99.90;;;;;;5060779;28;20699;-67
2023/10/07 00:39:31;;;;;;;11.33;3.30;;;12.60;99.90;;;;;;5062947;28;20202;-67
2023/10/07 00:42:19;;;;;;;10.87;2.87;;;12.70;99.90;;;;;;5052817;28;20299;-67
2023/10/07 00:45:14;;;;;;;9.17;2.90;;;12.60;99.90;;;;;;5056551;28;20199;-67
2023/10/07 00:48:10;;;;;;;8.07;2.43;;;12.50;99.90;;;;;;5055083;28;20692;-67
2023/10/07 00:50:58;;;;;;;10.27;3.00;;;12.40;99.90;;;;;;5058000;28;20218;-67
2023/10/07 00:54:00;;;;;;;6.47;2.90;;;12.50;99.90;;;;;;5051927;28;20725;-67
2023/10/07 00:57:02;;;;;;;8.87;2.70;;;12.50;99.90;;;;;;5060728;28;20234;-67
2023/10/07 00:59:51;;;;;;;11.27;2.97;;;12.40;99.90;;;;;;5057812;28;20202;-67
2023/10/07 01:02:39;;;;;;;10.00;2.80;;;12.50;99.90;;;;;;5064803;28;20226;-67
2023/10/07 01:05:33;;;;;;;6.73;2.93;;;12.60;99.90;;;;;;5062070;28;20260;-67
2023/10/07 01:08:26;;;;;;;10.60;3.17;;;12.60;99.90;;;;;;5054154;28;20234;-67
2023/10/07 01:11:23;;;;;;;11.23;3.00;;;12.50;99.90;;;;;;5056521;28;20224;-67
2023/10/07 01:14:12;;;;;;;13.50;3.00;;;12.50;99.90;;;;;;5061718;28;20239;-67
2023/10/07 01:17:00;;;;;;;10.97;3.50;;;12.50;99.90;;;;;;5058335;28;20207;-66
2023/10/07 01:19:52;;;;;;;10.27;2.93;;;12.50;99.90;;;;;;5058670;28;20317;-67
2023/10/07 01:23:00;;;;;;;8.87;3.00;;;12.50;99.90;;;;;;5056857;28;20684;-67
2023/10/07 01:25:50;;;;;;;6.43;2.97;;;12.50;99.90;;;;;;5059524;28;20202;-67
2023/10/07 01:28:40;;;;;;;9.47;3.23;;;12.60;99.90;;;;;;5063696;28;20235;-67
2023/10/07 01:31:29;;;;;;;12.13;3.10;;;12.70;99.90;;;;;;5063760;28;20555;-67
2023/10/07 01:34:19;;;;;;;10.43;3.00;;;12.60;99.90;;;;;;5065335;28;20215;-67
2023/10/07 01:37:08;;;;;;;8.87;2.93;;;12.60;99.90;;;;;;5058206;28;20243;-67
2023/10/07 01:39:57;;;;;;;8.37;2.80;;;12.50;99.90;;;;;;5062138;28;20284;-67
2023/10/07 01:42:44;;;;;;;6.30;2.57;;;12.50;99.90;;;;;;5059597;28;20710;-68
2023/10/07 01:45:34;;;;;;;8.13;2.90;;;12.60;99.90;;;;;;5060475;28;20578;-67
2023/10/07 01:48:22;;;;;;;7.37;2.67;;;12.70;99.90;;;;;;5060567;28;20311;-67
2023/10/07 01:51:14;;;;;;;12.10;3.53;;;12.70;99.90;;;;;;5055807;28;20222;-68
2023/10/07 01:54:03;;;;;;;6.07;2.90;;;12.60;99.90;;;;;;5053037;28;20209;-67
2023/10/07 01:56:52;;;;;;;13.07;2.93;;;12.60;99.90;;;;;;5056318;28;20199;-67
2023/10/07 01:59:40;;;;;;;7.67;2.70;;;12.70;99.90;;;;;;5061303;28;20656;-67
2023/10/07 02:02:28;;;;;;;5.40;2.47;;;12.70;99.90;;;;;;5059840;28;21528;-67
2023/10/07 02:05:15;;;;;;;6.33;2.70;;;12.60;99.90;;;;;;5052141;28;20802;-66
2023/10/07 02:08:03;;;;;;;7.17;2.70;;;12.70;99.90;;;;;;5058482;28;20738;-69
2023/10/07 02:10:51;;;;;;;6.47;2.00;;;12.70;99.90;;;;;;5060570;28;20231;-67
2023/10/07 02:13:40;;;;;;;7.37;3.00;;;12.60;99.90;;;;;;5059702;28;20276;-67
2023/10/07 02:16:27;;;;;;;12.43;2.93;;;12.70;99.90;;;;;;5064741;28;20206;-67
2023/10/07 02:19:26;;;;;;;9.90;3.17;;;12.70;99.90;;;;;;5062271;28;20234;-67
2023/10/07 02:22:22;;;;;;;8.10;3.23;;;12.70;99.90;;;;;;5056992;28;20197;-67
2023/10/07 02:25:10;;;;;;;6.40;2.80;;;12.70;99.90;;;;;;5059924;28;20681;-67
2023/10/07 02:27:57;;;;;;;9.97;3.10;;;12.70;99.90;;;;;;5065285;28;20217;-67
2023/10/07 02:30:51;;;;;;;10.60;2.97;;;12.70;99.90;;;;;;5066606;28;20232;-67
2023/10/07 02:33:42;;;;;;;10.80;3.47;;;12.70;99.90;;;;;;5066792;28;20750;-66
2023/10/07 02:36:31;;;;;;;11.40;3.17;;;12.80;99.90;;;;;;5063176;28;20198;-67
2023/10/07 02:39:23;;;;;;;11.17;3.63;;;12.80;99.90;;;;;;5064321;28;20201;-67
2023/10/07 02:42:11;;;;;;;6.80;2.40;;;12.80;99.90;;;;;;5067444;28;20311;-67
2023/10/07 02:45:11;;;;;;;5.50;2.10;;;12.80;99.90;;;;;;5060193;28;20200;-67
2023/10/07 02:48:01;;;;;;;9.80;3.30;;;12.80;99.90;;;;;;5071511;28;20212;-67
2023/10/07 02:50:51;;;;;;;9.17;3.30;;;12.90;99.90;;;;;;5059879;28;20236;-67
2023/10/07 02:53:39;;;;;;;9.87;2.67;;;12.90;99.90;;;;;;5064265;28;20193;-67
2023/10/07 02:56:29;;;;;;;10.50;3.23;;;12.90;99.90;;;;;;5067090;28;20218;-66
2023/10/07 02:59:27;;;;;;;6.57;2.77;;;13.00;99.90;;;;;;5062977;28;20220;-66
2023/10/07 03:02:26;;;;;;;6.80;3.27;;;13.00;99.90;;;;;;5067326;28;20697;-67
2023/10/07 03:05:15;;;;;;;8.77;2.90;;;13.00;99.90;;;;;;5062773;28;20230;-66
2023/10/07 03:08:06;;;;;;;9.83;3.00;;;13.00;99.90;;;;;;5063338;28;20202;-67
2023/10/07 03:11:03;;;;;;;9.70;3.17;;;13.10;99.90;;;;;;5060728;28;20202;-67
2023/10/07 03:13:56;;;;;;;8.83;3.20;;;13.00;99.90;;;;;;5069408;28;20205;-67
2023/10/07 03:16:46;;;;;;;9.67;3.20;;;13.10;99.90;;;;;;5058427;28;20927;-67
2023/10/07 03:19:48;;;;;;;8.40;3.57;;;13.10;99.90;;;;;;5068118;28;20213;-67
2023/10/07 03:23:10;;;;;;;7.20;2.70;;;13.10;99.90;;;;;;5067707;28;20207;-67
2023/10/07 03:28:52;;;;;;;7.93;3.17;;;13.10;99.90;;;;;;5066640;28;20730;-67
2023/10/07 03:31:47;;;;;;;7.30;2.67;;;13.10;99.90;;;;;;5059528;28;20814;-66
2023/10/07 03:34:36;;;;;;;5.07;1.83;;;13.30;99.90;;;;;;5064075;28;20202;-67
2023/10/07 03:37:25;;;;;;;6.50;2.70;;;13.20;99.90;;;;;;5067375;28;20204;-66
2023/10/07 03:40:25;;;;;;;9.30;3.40;;;13.20;99.90;;;;;;5064734;28;20201;-67
2023/10/07 03:43:13;;;;;;;5.00;1.97;;;13.10;99.90;;;;;;5063769;28;20208;-67
2023/10/07 03:46:00;;;;;;;8.30;3.03;;;13.10;99.90;;;;;;5065161;28;20231;-66
2023/10/07 03:48:53;;;;;;;8.13;2.57;;;13.20;99.90;;;;;;5066551;28;20210;-67
2023/10/07 03:51:40;;;;;;;8.37;3.17;;;13.20;99.90;;;;;;5062514;28;20229;-67
2023/10/07 03:54:30;;;;;;;10.97;3.73;;;13.20;99.90;;;;;;5064667;28;20717;-68
2023/10/07 03:57:19;;;;;;;8.17;3.53;;;13.20;99.90;;;;;;5071746;28;20209;-67
2023/10/07 04:00:11;;;;;;;6.33;2.80;;;13.20;99.90;;;;;;5061182;28;20215;-67
2023/10/07 04:03:01;;;;;;;10.60;3.53;;;13.10;99.90;;;;;;5058068;28;20201;-67
2023/10/07 04:05:49;;;;;;;10.97;3.53;;;13.20;99.90;;;;;;5062155;28;20971;-67
2023/10/07 04:08:39;;;;;;;8.57;3.23;;;13.20;99.90;;;;;;5063090;28;20736;-67
2023/10/07 04:11:28;;;;;;;9.37;3.00;;;13.20;99.90;;;;;;5064318;28;20240;-67
2023/10/07 04:14:27;;;;;;;10.57;3.40;;;13.30;99.90;;;;;;5059237;28;20201;-67
2023/10/07 04:17:14;;;;;;;6.93;2.37;;;13.20;99.90;;;;;;5061043;28;20211;-67
2023/10/07 04:20:18;;;;;;;7.77;3.30;;;13.20;99.90;;;;;;5061546;28;20216;-67
2023/10/07 04:23:05;;;;;;;3.53;1.80;;;13.20;99.90;;;;;;5064005;28;20600;-67
2023/10/07 04:25:55;;;;;;;9.33;3.20;;;13.10;99.90;;;;;;5062287;28;20216;-67
2023/10/07 04:28:43;;;;;;;4.00;1.53;;;13.10;99.90;;;;;;5062697;28;20197;-67
2023/10/07 04:31:37;;;;;;;10.57;3.50;;;13.10;99.90;;;;;;5061486;28;20221;-67
2023/10/07 04:34:26;;;;;;;11.93;3.83;;;13.10;99.90;;;;;;5058810;28;20283;-67
2023/10/07 04:37:16;;;;;;;10.23;2.73;;;13.10;99.90;;;;;;5062046;28;20201;-66
2023/10/07 04:43:35;;;;;;;9.43;2.00;;;13.20;99.90;;;;;;5063906;28;20194;-66
2023/10/07 04:46:23;;;;;;;7.93;3.37;;;13.20;99.90;;;;;;5060475;28;20661;-66
2023/10/07 04:49:14;;;;;;;11.23;3.60;;;13.10;99.90;;;;;;5060695;28;20239;-67
2023/10/07 04:52:04;;;;;;;9.37;3.87;;;13.20;99.90;;;;;;5061070;28;20222;-67
2023/10/07 04:54:52;;;;;;;10.87;3.67;;;13.20;99.90;;;;;;5058552;28;20809;-66
2023/10/07 04:57:56;;;;;;;6.43;2.47;;;13.20;99.90;;;;;;5060477;28;20234;-66
2023/10/07 05:00:47;;;;;;;8.60;3.50;;;13.20;99.90;;;;;;5060181;28;20225;-66
2023/10/07 05:03:34;;;;;;;14.63;4.07;;;13.20;99.90;;;;;;5065654;28;20199;-66
2023/10/07 05:06:22;;;;;;;9.50;3.40;;;13.20;99.90;;;;;;5059943;28;20736;-66
2023/10/07 05:09:10;;;;;;;10.60;3.77;;;13.20;99.90;;;;;;5056032;28;20278;-67
2023/10/07 05:11:57;;;;;;;8.07;3.20;;;13.20;99.90;;;;;;5063468;28;20220;-66
2023/10/07 05:14:43;;;;;;;10.30;3.40;;;13.20;99.90;;;;;;5058847;28;20292;-66
2023/10/07 05:17:36;;;;;;;10.63;3.20;;;13.30;99.90;;;;;;5058639;28;20200;-66
2023/10/07 05:20:28;;;;;;;9.00;3.20;;;13.20;99.90;;;;;;5061072;28;20205;-66
2023/10/07 05:23:17;;;;;;;12.63;4.50;;;13.30;99.90;;;;;;5060629;28;20244;-66
2023/10/07 05:26:08;;;;;;;9.37;3.33;;;13.30;99.90;;;;;;5060111;28;20212;-66
2023/10/07 05:28:56;;;;;;;11.27;3.93;;;13.30;99.90;;;;;;5065056;28;20211;-66
2023/10/07 05:31:44;;;;;;;9.53;3.87;;;13.20;99.90;;;;;;5057062;28;20218;-66
2023/10/07 05:34:33;;;;;;;9.67;3.90;;;13.30;99.90;;;;;;5058289;28;20218;-66
2023/10/07 05:37:22;;;;;;;11.63;3.73;;;13.30;99.90;;;;;;5054545;28;20214;-66
2023/10/07 05:40:15;;;;;;;9.43;3.90;;;13.30;99.90;;;;;;5056571;28;20204;-66
2023/10/07 05:43:02;;;;;;;12.50;3.97;;;13.40;99.90;;;;;;5063667;28;20695;-66
2023/10/07 05:45:49;;;;;;;8.87;3.93;;;13.40;99.90;;;;;;5055280;28;20662;-66
2023/10/07 05:48:38;;;;;;;10.93;4.27;;;13.40;99.90;;;;;;5060751;28;20703;-66
2023/10/07 05:51:26;;;;;;;13.03;4.00;;;13.40;99.90;;;;;;5061808;28;20220;-66
2023/10/07 05:54:18;;;;;;;10.73;4.03;;;13.40;99.90;;;;;;5053045;28;20666;-66
2023/10/07 05:57:09;;;;;;;12.40;4.03;;;13.50;99.90;;;;;;5054279;28;20192;-66
2023/10/07 05:59:56;;;;;;;9.50;3.67;;;13.50;99.90;;;;;;5059052;28;20754;-66
2023/10/07 06:02:43;;;;;;;15.13;4.07;;;13.50;99.90;;;;;;5065769;28;20635;-66
2023/10/07 06:05:33;;;;;;;12.10;4.30;;;13.60;99.90;;;;;;5059717;28;20220;-66
2023/10/07 06:08:21;;;;;;;8.80;3.97;;;13.60;99.90;;;;;;5062292;28;20200;-66
2023/10/07 06:11:10;;;;;;;17.43;4.27;;;13.60;99.90;;;;;;5062861;28;20252;-66
2023/10/07 06:13:59;;;;;;;12.60;4.20;;;13.70;99.90;;;;;;5067001;28;20643;-66
2023/10/07 06:16:52;;;;;;;11.17;3.53;;;13.70;99.90;;;;;;5063203;28;20203;-66
2023/10/07 06:19:43;;;;;;;11.00;3.60;;;13.70;99.90;;;;;;5066867;28;20202;-66
2023/10/07 06:22:33;;;;;;;10.83;4.20;;;13.80;99.90;;;;;;5047836;28;20200;-66
2023/10/07 06:25:30;;;;;;;13.73;3.67;;;13.80;99.90;;;;;;5063801;28;20328;-66
2023/10/07 06:28:29;;;;;;;7.10;2.67;;;13.80;99.90;;;;;;5068200;28;20337;-66
2023/10/07 06:31:22;;;;;;;10.33;3.93;;;13.90;99.90;;;;;;5062302;28;20235;-66
2023/10/07 06:34:14;;;;;;;8.53;2.90;;;13.90;99.90;;;;;;5063092;28;20578;-66
2023/10/07 06:37:01;;;;;;;12.03;3.73;;;13.90;99.90;;;;;;5063199;28;20687;-66
2023/10/07 06:39:49;;;;;;;12.67;3.77;;;13.90;99.90;;;;;;5063561;28;20212;-66
2023/10/07 06:42:40;;;;;;;11.70;4.17;;;13.90;99.90;;;;;;5063760;28;20238;-66
2023/10/07 06:45:35;;;;;;;10.47;3.47;;;13.80;99.90;;;;;;5067484;28;20216;-66
2023/10/07 06:48:27;;;;;;;12.60;4.13;;;13.90;99.90;;;;;;5067344;28;20281;-66
2023/10/07 06:51:14;;;;;;;10.97;4.20;;;13.90;99.90;;;;;;5063226;28;20213;-66
2023/10/07 06:54:04;;;;;;;16.97;4.47;;;13.90;99.90;;;;;;5053127;28;20194;-66
2023/10/07 06:56:51;;;;;;;7.00;2.80;;;13.90;99.90;;;;;;5063102;28;20214;-66
2023/10/07 06:59:40;;;;;;;12.87;4.33;;;14.00;99.90;;;;;;5057748;28;20212;-66
2023/10/07 07:02:35;;;;;;;10.37;4.30;;;14.00;99.90;;;;;;5067470;28;20195;-66
2023/10/07 07:05:24;;;;;;;13.13;4.17;;;13.90;99.90;;;;;;5060831;28;20292;-66
2023/10/07 07:08:12;;;;;;;14.47;4.87;;;13.90;99.90;;;;;;5054608;28;20210;-66
2023/10/07 07:11:09;;;;;;;8.93;2.57;;;14.10;99.90;;;;;;5058467;28;20213;-66
2023/10/07 07:13:57;;;;;;;10.47;4.07;;;14.20;99.90;;;;;;5050726;28;20764;-66
2023/10/07 07:16:48;;;;;;;7.00;1.70;;;14.20;99.90;;;;;;5062834;28;20306;-66
2023/10/07 07:19:37;;;;;;;13.30;4.97;;;14.30;99.90;;;;;;5061326;28;20273;-66
2023/10/07 07:22:25;;;;;;;9.13;4.07;;;14.30;99.90;;;;;;5059735;28;20200;-66
2023/10/07 07:25:18;;;;;;;16.20;5.10;;;14.50;99.90;;;;;;5060825;28;20215;-66
2023/10/07 07:28:06;;;;;;;13.73;4.13;;;14.50;99.90;;;;;;5061149;28;20212;-66
2023/10/07 07:30:57;;;;;;;8.83;3.70;;;14.60;99.90;;;;;;5060458;28;20639;-66
2023/10/07 07:33:48;;;;;;;7.07;2.47;;;14.70;99.90;;;;;;5067235;28;20258;-66
2023/10/07 07:36:39;;;;;;;14.90;4.30;;;14.90;99.90;;;;;;5062835;28;20294;-66
2023/10/07 07:39:30;;;;;;;10.33;3.90;;;14.90;99.90;;;;;;5058525;28;20208;-66
2023/10/07 07:42:22;;;;;;;9.37;4.17;;;15.00;99.90;;;;;;5064031;28;20205;-66
2023/10/07 07:45:15;;;;;;;10.67;4.23;;;15.00;99.90;;;;;;5060837;28;20261;-66
2023/10/07 07:48:04;;;;;;;9.50;4.53;;;14.90;99.90;;;;;;5060848;28;20218;-66
2023/10/07 07:50:54;;;;;;;10.27;3.90;;;14.80;99.90;;;;;;5061977;28;20671;-66
2023/10/07 07:53:42;;;;;;;8.80;3.40;;;14.90;99.90;;;;;;5054983;28;20695;-66
2023/10/07 07:56:31;;;;;;;12.07;3.23;;;15.10;99.90;;;;;;5061956;28;20204;-66
2023/10/07 07:59:19;;;;;;;13.10;4.03;;;15.20;99.90;;;;;;5054288;28;20197;-66
2023/10/07 08:02:12;;;;;;;13.03;4.80;;;15.20;99.90;;;;;;5053315;28;20204;-66
2023/10/07 08:05:02;;;;;;;10.23;4.27;;;15.40;99.90;;;;;;5051505;28;20207;-66
2023/10/07 08:07:51;;;;;;;19.07;4.00;;;15.40;99.90;;;;;;5040701;28;20205;-66
2023/10/07 08:10:38;;;;;;;10.23;3.27;;;15.40;99.90;;;;;;5031502;28;20209;-66
2023/10/07 08:13:28;;;;;;;12.00;4.30;;;15.40;99.90;;;;;;5040570;28;20695;-66
2023/10/07 08:16:18;;;;;;;12.77;4.10;;;15.60;99.90;;;;;;4901013;28;533527;-66
2023/10/07 08:19:05;;;;;;;8.67;4.10;;;16.10;99.90;;;;;;4387320;28;658512;-66
2023/10/07 08:21:53;;;;;;;8.90;3.30;;;16.40;99.90;;;;;;4412990;28;656620;-66
2023/10/07 08:24:41;;;;;;;10.40;4.27;;;16.30;99.90;;;;;;4422475;28;656961;-66
2023/10/07 08:27:49;;;;;;;8.87;2.60;;;15.80;99.90;;;;;;4409174;28;658859;-66
2023/10/07 08:30:38;;;;;;;12.03;4.73;;;16.10;99.90;;;;;;4410805;28;656628;-66
2023/10/07 08:33:32;;;;;;;8.20;3.87;;;16.20;99.90;;;;;;4402223;28;659114;-66
2023/10/07 08:36:27;;;;;;;11.23;4.63;;;16.40;99.90;;;;;;4383552;28;657342;-66
2023/10/07 08:39:17;;;;;;;11.23;4.43;;;16.60;99.90;;;;;;4384861;28;658805;-66
2023/10/07 08:42:12;;;;;;;13.70;4.30;;;16.40;99.90;;;;;;4408032;28;658258;-66
2023/10/07 08:44:59;;;;;;;10.53;4.27;;;16.30;99.90;;;;;;4408925;28;657886;-66
2023/10/07 08:47:49;;;;;;;14.27;5.03;;;16.70;99.90;;;;;;4432056;28;658236;-66
2023/10/07 08:50:42;;;;;;;11.88;4.40;;;17.50;99.90;;;;;;4406029;28;658031;-66
2023/10/07 08:53:31;;;;;;;9.97;3.47;;;17.40;99.90;;;;;;4350502;28;657655;-66
2023/10/07 08:56:19;;;;;;;10.60;3.97;;;17.60;99.90;;;;;;4398434;28;656697;-66
2023/10/07 08:59:12;;;;;;;11.90;4.43;;;17.70;99.90;;;;;;4427433;28;657743;-66
2023/10/07 09:02:03;;;;;;;12.60;4.13;;;17.20;99.90;;;;;;4406135;28;658142;-66
2023/10/07 09:04:53;;;;;;;11.30;4.47;;;17.70;99.90;;;;;;4407632;28;659391;-66
2023/10/07 09:07:48;;;;;;;13.43;3.93;;;17.70;99.90;;;;;;4408628;28;658942;-66
2023/10/07 09:10:36;;;;;;;12.03;4.23;;;17.50;99.90;;;;;;4404138;28;657494;-66
2023/10/07 09:13:29;;;;;;;13.33;4.37;;;17.20;99.90;;;;;;4404510;28;657337;-66
2023/10/07 09:16:21;;;;;;;15.03;4.43;;;17.00;99.90;;;;;;4408789;28;659090;-66
2023/10/07 09:19:13;;;;;;;7.20;3.50;;;16.80;99.90;;;;;;4398472;28;657821;-66
2023/10/07 09:22:10;;;;;;;11.60;4.23;;;16.90;99.90;;;;;;4407967;28;657056;-66
2023/10/07 09:25:09;;;;;;;12.70;4.90;;;16.80;99.90;;;;;;4392408;28;658098;-66
2023/10/07 09:27:58;;;;;;;4.97;2.77;;;16.60;99.90;;;;;;4403399;28;657956;-66
2023/10/07 09:30:48;;;;;;;9.97;3.93;;;16.70;99.90;;;;;;4404105;28;657659;-66
2023/10/07 09:33:37;;;;;;;9.50;3.60;;;16.80;99.90;;;;;;4398934;28;656908;-66
2023/10/07 09:36:33;;;;;;;13.43;4.47;;;17.40;99.90;;;;;;4411715;28;657174;-66
2023/10/07 09:42:36;;;;;;;9.70;3.10;;;18.00;99.90;;;;;;4409288;28;656108;-66
2023/10/07 09:45:28;;;;;;;11.70;3.00;;;18.00;99.90;;;;;;4384506;28;656989;-66
2023/10/07 09:48:15;;;;;;;6.63;2.73;;;18.20;99.90;;;;;;4405847;28;658817;-66
2023/10/07 09:51:14;;;;;;;10.53;3.23;;;18.70;99.90;;;;;;4417827;28;656392;-66
2023/10/07 09:54:15;;;;;;;14.23;3.03;;;18.60;99.90;;;;;;4406723;28;657433;-66
2023/10/07 09:57:19;;;;;;;11.20;3.67;;;18.80;99.90;;;;;;4383697;28;658055;-66
2023/10/07 10:03:45;;;;;;;8.17;2.17;;;18.20;99.90;;;;;;4382665;28;658126;-66
2023/10/07 10:06:42;;;;;;;7.83;3.33;;;18.00;99.90;;;;;;4394535;28;656543;-66
2023/10/07 10:09:42;;;;;;;5.73;1.97;;;17.90;99.90;;;;;;4414926;28;657404;-66
2023/10/07 10:12:56;;;;;;;5.77;2.27;;;17.90;99.90;;;;;;4383607;28;657888;-66
2023/10/07 10:15:57;;;;;;;9.27;3.00;;;17.70;99.90;;;;;;4413754;28;657008;-66
2023/10/07 10:18:45;;;;;;;10.67;3.47;;;17.90;99.90;;;;;;4412779;28;656842;-66
2023/10/07 10:21:36;;;;;;;7.07;3.23;;;17.60;99.90;;;;;;4413148;28;657541;-66
2023/10/07 10:24:24;;;;;;;10.63;3.77;;;17.70;99.90;;;;;;4409422;28;656626;-66
2023/10/07 10:27:11;;;;;;;11.93;3.90;;;17.80;99.90;;;;;;4429712;28;657681;-66
2023/10/07 10:30:04;;;;;;;12.53;2.73;;;17.80;99.90;;;;;;4404608;28;657898;-66
2023/10/07 10:32:57;;;;;;;7.40;2.23;;;17.80;99.90;;;;;;4405904;28;658383;-66
2023/10/07 10:35:44;;;;;;;9.63;3.27;;;17.70;99.90;;;;;;4385522;28;657408;-66
2023/10/07 10:38:38;;;;;;;10.53;3.43;;;17.60;99.90;;;;;;4428629;28;657289;-66
2023/10/07 10:41:28;;;;;;;4.97;1.70;;;17.60;99.90;;;;;;4398239;28;658131;-66
2023/10/07 10:44:17;;;;;;;8.93;3.10;;;17.60;99.90;;;;;;4400271;28;656946;-66
2023/10/07 10:47:07;;;;;;;9.27;3.70;;;17.80;99.90;;;;;;4406583;28;656720;-66
2023/10/07 10:49:55;;;;;;;7.97;3.10;;;17.80;99.90;;;;;;4407507;28;657341;-66
2023/10/07 10:52:43;;;;;;;15.87;3.43;;;18.30;99.90;;;;;;4411458;28;658662;-66
2023/10/07 10:55:34;;;;;;;9.27;3.50;;;18.50;99.90;;;;;;4432340;28;659038;-66
2023/10/07 10:58:22;;;;;;;7.80;3.00;;;18.60;99.90;;;;;;4411212;28;656804;-66
2023/10/07 11:01:11;;;;;;;8.67;3.63;;;18.50;99.90;;;;;;4410549;28;658005;-66
2023/10/07 11:04:01;;;;;;;9.70;4.00;;;19.00;99.90;;;;;;4405757;28;656886;-66
2023/10/07 11:06:51;;;;;;;12.67;3.47;;;19.10;99.90;;;;;;4411023;28;657078;-66
2023/10/07 11:09:38;;;;;;;11.53;4.13;;;18.90;99.90;;;;;;4414673;28;657533;-67
2023/10/07 11:12:28;;;;;;;12.30;4.10;;;19.00;99.90;;;;;;4437436;28;658170;-66
2023/10/07 11:15:15;;;;;;;10.60;4.30;;;19.00;99.90;;;;;;4409063;28;658384;-66
2023/10/07 11:18:12;;;;;;;12.70;4.40;;;18.80;99.90;;;;;;4413154;28;657736;-67
2023/10/07 11:21:02;;;;;;;6.37;2.60;;;18.70;99.90;;;;;;4414860;28;657886;-66
2023/10/07 11:23:50;;;;;;;8.93;3.37;;;18.50;99.90;;;;;;4414637;28;656391;-66
2023/10/07 11:26:39;;;;;;;12.57;3.90;;;18.10;99.90;;;;;;4414354;28;658081;-66
2023/10/07 11:29:30;;;;;;;8.13;2.80;;;18.20;99.90;;;;;;4435158;28;657735;-66
2023/10/07 11:32:17;;;;;;;8.97;3.83;;;18.20;99.90;;;;;;4414836;28;656725;-66
2023/10/07 11:35:05;;;;;;;11.37;4.00;;;18.40;99.90;;;;;;4410277;28;658168;-66
2023/10/07 11:37:57;;;;;;;9.13;3.77;;;18.60;99.90;;;;;;4414101;28;658645;-66
2023/10/07 11:40:44;;;;;;;10.73;3.37;;;18.70;99.90;;;;;;4407976;28;657720;-66
2023/10/07 11:43:31;;;;;;;13.10;3.87;;;18.40;99.90;;;;;;4430215;28;658145;-66
2023/10/07 11:46:19;;;;;;;9.27;3.07;;;18.40;99.90;;;;;;4413349;28;657419;-66
2023/10/07 11:49:07;;;;;;;12.27;4.10;;;18.60;99.90;;;;;;4431918;28;656604;-66
2023/10/07 11:51:55;;;;;;;9.57;4.00;;;18.60;99.90;;;;;;4402830;28;659990;-66
2023/10/07 11:54:44;;;;;;;8.07;3.57;;;18.80;99.90;;;;;;4419650;28;656264;-66
2023/10/07 11:57:34;;;;;;;13.37;3.80;;;18.80;99.90;;;;;;4432072;28;657177;-66
2023/10/07 12:00:28;;;;;;;5.70;2.60;;;18.60;99.90;;;;;;4410455;28;657651;-66
2023/10/07 12:03:17;;;;;;;8.20;2.33;;;18.60;99.90;;;;;;4407252;28;657319;-66
2023/10/07 12:06:05;;;;;;;6.90;2.67;;;18.50;99.90;;;;;;4411760;28;658068;-66
2023/10/07 12:08:53;;;;;;;4.07;1.80;;;18.70;99.90;;;;;;4430019;28;656197;-66
2023/10/07 12:11:42;;;;;;;6.33;2.80;;;18.90;99.90;;;;;;4429802;28;657810;-66
2023/10/07 12:14:31;;;;;;;9.23;2.97;;;18.80;99.90;;;;;;4401351;28;658148;-66
2023/10/07 12:17:18;;;;;;;12.70;3.90;;;18.70;99.90;;;;;;4401182;28;657934;-66
2023/10/07 12:20:12;;;;;;;11.97;3.67;;;18.90;99.90;;;;;;4426929;28;657976;-66
2023/10/07 12:22:59;;;;;;;7.73;2.70;;;19.30;99.90;;;;;;4382260;28;658439;-66
2023/10/07 12:25:47;;;;;;;8.67;3.20;;;19.50;99.90;;;;;;4430996;28;657891;-66
2023/10/07 12:28:36;;;;;;;8.83;3.80;;;19.30;99.90;;;;;;4413366;28;656753;-66
2023/10/07 12:31:24;;;;;;;9.03;2.97;;;19.10;99.90;;;;;;4407878;28;657608;-66
2023/10/07 12:34:11;;;;;;;11.13;3.20;;;19.00;99.90;;;;;;4437549;28;656664;-66
2023/10/07 12:36:58;;;;;;;9.30;3.07;;;18.90;99.90;;;;;;4410779;28;657653;-67
2023/10/07 12:39:49;;;;;;;9.37;3.37;;;18.70;99.90;;;;;;4434185;28;657377;-66
2023/10/07 12:42:36;;;;;;;10.37;3.80;;;18.40;99.90;;;;;;4408651;28;656775;-67
2023/10/07 12:45:25;;;;;;;8.80;3.93;;;18.40;99.90;;;;;;4412266;28;657498;-66
2023/10/07 12:48:12;;;;;;;7.70;2.00;;;18.20;99.90;;;;;;4428892;28;656781;-66
2023/10/07 12:51:03;;;;;;;8.70;4.23;;;18.10;99.90;;;;;;4434570;28;656640;-66
2023/10/07 12:53:55;;;;;;;4.27;1.80;;;17.90;99.90;;;;;;4410306;28;656761;-66
2023/10/07 12:56:46;;;;;;;13.70;4.30;;;17.90;99.90;;;;;;4388730;28;657419;-66
2023/10/07 12:59:35;;;;;;;8.20;2.07;;;17.90;99.90;;;;;;4407946;28;658678;-65
2023/10/07 13:02:28;;;;;;;9.87;4.00;;;17.80;99.90;;;;;;4416165;28;656405;-66
2023/10/07 13:05:19;;;;;;;11.73;4.73;;;17.80;99.90;;;;;;4407776;28;657672;-66
2023/10/07 13:08:12;;;;;;;9.83;3.90;;;17.80;99.90;;;;;;4406218;28;658393;-66
2023/10/07 13:11:00;;;;;;;10.47;4.13;;;17.80;99.90;;;;;;4413153;28;656666;-66
2023/10/07 13:13:47;;;;;;;8.70;3.70;;;17.80;99.90;;;;;;4418785;28;657523;-66
2023/10/07 13:16:37;;;;;;;10.90;4.13;;;17.70;99.90;;;;;;4432905;28;658308;-66
2023/10/07 13:19:27;;;;;;;6.23;2.20;;;17.50;99.90;;;;;;4399839;28;659593;-67
2023/10/07 13:22:14;;;;;;;11.77;4.23;;;17.30;99.90;;;;;;4405391;28;656950;-66
2023/10/07 13:25:04;;;;;;;12.27;4.33;;;17.30;99.90;;;;;;4420930;28;657382;-66
2023/10/07 13:27:51;;;;;;;11.20;4.37;;;17.20;99.90;;;;;;4409021;28;657393;-66
2023/10/07 13:30:39;;;;;;;10.53;4.90;;;17.20;99.90;;;;;;4413297;28;657436;-66
2023/10/07 13:33:28;;;;;;;9.20;4.10;;;17.10;99.90;;;;;;4428046;28;657114;-66
2023/10/07 13:36:17;;;;;;;11.03;4.27;;;17.10;99.90;;;;;;4400094;28;656734;-66
2023/10/07 13:39:05;;;;;;;13.77;4.50;;;17.10;99.90;;;;;;4403668;28;657405;-66
2023/10/07 13:41:53;;;;;;;9.77;4.20;;;17.10;99.90;;;;;;4428836;28;657404;-66
2023/10/07 13:44:41;;;;;;;15.37;4.10;;;17.10;99.90;;;;;;4431268;28;657932;-66
2023/10/07 13:47:31;;;;;;;6.90;2.83;;;17.10;99.90;;;;;;4411282;28;657405;-66
2023/10/07 13:50:20;;;;;;;10.53;4.03;;;17.20;99.90;;;;;;4411809;28;656929;-66
2023/10/07 13:53:28;;;;;;;8.47;2.97;;;17.20;99.90;;;;;;4413712;28;658625;-66
2023/10/07 13:56:23;;;;;;;14.93;3.77;;;17.10;99.90;;;;;;4380006;28;658273;-66
2023/10/07 13:59:11;;;;;;;17.13;3.80;;;17.10;99.90;;;;;;4409322;28;658501;-66
2023/10/07 14:02:00;;;;;;;14.67;4.33;;;17.20;99.90;;;;;;4410202;28;657743;-66
2023/10/07 14:04:52;;;;;;;8.43;3.03;;;17.20;99.90;;;;;;4425294;28;658760;-66
2023/10/07 14:07:39;;;;;;;9.33;3.47;;;17.20;99.90;;;;;;4407695;28;657606;-66
2023/10/07 14:10:28;;;;;;;13.57;4.07;;;17.10;99.90;;;;;;4430602;28;658649;-66
2023/10/07 14:13:16;;;;;;;13.67;3.93;;;17.00;99.90;;;;;;4409330;28;658240;-66
2023/10/07 14:16:08;;;;;;;10.60;4.00;;;17.10;99.90;;;;;;4408683;28;657639;-66
2023/10/07 14:18:57;;;;;;;6.70;2.97;;;17.00;99.90;;;;;;4408766;28;659162;-66
2023/10/07 14:21:45;;;;;;;9.70;3.53;;;17.00;99.90;;;;;;4407314;28;657394;-66
2023/10/07 14:24:32;;;;;;;11.07;4.07;;;17.10;99.90;;;;;;4426685;28;656777;-66
2023/10/07 14:27:23;;;;;;;10.67;3.30;;;17.00;99.90;;;;;;4431995;28;659067;-66
2023/10/07 14:30:14;;;;;;;8.57;3.50;;;16.80;99.90;;;;;;4401082;28;658304;-66
2023/10/07 14:33:01;;;;;;;7.07;2.50;;;16.90;99.90;;;;;;4403476;28;657353;-65
2023/10/07 14:35:49;;;;;;;15.33;3.80;;;16.90;99.90;;;;;;4411412;28;656564;-66
2023/10/07 14:38:36;;;;;;;12.13;3.53;;;16.80;99.90;;;;;;4429393;28;658457;-66
2023/10/07 14:41:26;;;;;;;10.23;3.80;;;16.70;99.90;;;;;;4409442;28;657910;-66
2023/10/07 14:44:15;;;;;;;10.37;3.83;;;16.70;99.90;;;;;;4416513;28;658433;-65
2023/10/07 14:47:04;;;;;;;7.70;3.03;;;16.50;99.90;;;;;;4411239;28;657679;-65
2023/10/07 14:49:52;;;;;;;13.50;4.10;;;16.60;99.90;;;;;;4424937;28;657725;-66
2023/10/07 14:52:39;;;;;;;9.97;3.63;;;16.50;99.90;;;;;;4397425;28;658743;-66